Courtland, California
Current Conditions -  °F | °C
As of 12:53 AM on Friday 31 Oct 2014 (Local Time) from KSAC Reporting Station
Clear Clear  
Wind Chill: 62°   Ceiling: Unl
Heat Index: 62°   Visibility: 10mi
Dew Point: 57°   Wind: 12mph
Humidity: 84%   Direction: 230°SW
Pressure: 29.88"   Gusts: NA
Location:  38.33°N, 121.57°W
Report Text: KSAC 310753Z AUTO 23010KT 10SM CLR 17/14 A2988 RMK AO2 SLP116 T01670139 402670111
Loading
Personal Weather Stations






























Interactive Weather Map
Tropical Storm Tracking
New forecast layout! Learn more

10-Day Weather Forecast

Advertisements
Track Severe Weather on mobile